sensor_id;sensor_type;location;lat;lon;timestamp;temperature;humidity
326;DHT22;150;52.352;14.058;2023-12-20T00:02:02;8.40;53.30
326;DHT22;150;52.352;14.058;2023-12-20T00:04:29;8.40;52.90
326;DHT22;150;52.352;14.058;2023-12-20T00:06:56;8.50;53.00
326;DHT22;150;52.352;14.058;2023-12-20T00:09:22;8.50;53.00
326;DHT22;150;52.352;14.058;2023-12-20T00:11:49;8.50;53.00
326;DHT22;150;52.352;14.058;2023-12-20T00:14:16;8.40;52.90
326;DHT22;150;52.352;14.058;2023-12-20T00:16:43;8.40;53.00
326;DHT22;150;52.352;14.058;2023-12-20T00:19:09;8.40;53.00
326;DHT22;150;52.352;14.058;2023-12-20T00:21:36;8.40;53.00
326;DHT22;150;52.352;14.058;2023-12-20T00:24:03;8.40;53.00
326;DHT22;150;52.352;14.058;2023-12-20T00:26:30;8.40;53.00
326;DHT22;150;52.352;14.058;2023-12-20T00:28:56;8.40;52.90
326;DHT22;150;52.352;14.058;2023-12-20T00:31:24;8.30;53.00
326;DHT22;150;52.352;14.058;2023-12-20T00:33:51;8.30;53.70
326;DHT22;150;52.352;14.058;2023-12-20T00:36:17;8.30;53.60
326;DHT22;150;52.352;14.058;2023-12-20T00:38:44;8.30;53.90
326;DHT22;150;52.352;14.058;2023-12-20T00:41:11;8.30;53.70
326;DHT22;150;52.352;14.058;2023-12-20T00:43:38;8.30;53.90
326;DHT22;150;52.352;14.058;2023-12-20T00:46:04;8.30;53.70
326;DHT22;150;52.352;14.058;2023-12-20T00:48:32;8.20;54.00
326;DHT22;150;52.352;14.058;2023-12-20T00:50:59;8.20;54.20
326;DHT22;150;52.352;14.058;2023-12-20T00:53:25;8.20;54.60
326;DHT22;150;52.352;14.058;2023-12-20T00:55:52;8.30;54.20
326;DHT22;150;52.352;14.058;2023-12-20T00:58:18;8.30;53.90
326;DHT22;150;52.352;14.058;2023-12-20T01:00:45;8.20;53.80
326;DHT22;150;52.352;14.058;2023-12-20T01:03:12;8.20;53.90
326;DHT22;150;52.352;14.058;2023-12-20T01:05:40;8.20;54.50
326;DHT22;150;52.352;14.058;2023-12-20T01:08:07;8.20;54.70
326;DHT22;150;52.352;14.058;2023-12-20T01:10:33;8.20;54.20
326;DHT22;150;52.352;14.058;2023-12-20T01:13:00;8.30;54.40
326;DHT22;150;52.352;14.058;2023-12-20T01:15:26;8.30;54.40
326;DHT22;150;52.352;14.058;2023-12-20T01:17:53;8.30;54.40
326;DHT22;150;52.352;14.058;2023-12-20T01:20:19;8.30;53.70
326;DHT22;150;52.352;14.058;2023-12-20T01:22:47;8.30;53.80
326;DHT22;150;52.352;14.058;2023-12-20T01:25:14;8.30;53.90
326;DHT22;150;52.352;14.058;2023-12-20T01:27:40;8.40;54.20
326;DHT22;150;52.352;14.058;2023-12-20T01:30:08;8.40;53.50
326;DHT22;150;52.352;14.058;2023-12-20T01:32:34;8.40;53.20
326;DHT22;150;52.352;14.058;2023-12-20T01:35:01;8.40;53.30
326;DHT22;150;52.352;14.058;2023-12-20T01:37:28;8.40;53.00
326;DHT22;150;52.352;14.058;2023-12-20T01:39:56;8.30;52.90
326;DHT22;150;52.352;14.058;2023-12-20T01:42:22;8.40;53.60
326;DHT22;150;52.352;14.058;2023-12-20T01:44:49;8.40;53.30
326;DHT22;150;52.352;14.058;2023-12-20T01:47:16;8.30;52.80
326;DHT22;150;52.352;14.058;2023-12-20T01:49:43;8.30;53.10
326;DHT22;150;52.352;14.058;2023-12-20T01:52:10;8.30;54.00
326;DHT22;150;52.352;14.058;2023-12-20T01:54:37;8.30;54.10
326;DHT22;150;52.352;14.058;2023-12-20T01:57:06;8.30;53.60
326;DHT22;150;52.352;14.058;2023-12-20T01:59:34;8.20;53.90
326;DHT22;150;52.352;14.058;2023-12-20T02:02:02;8.30;53.80
326;DHT22;150;52.352;14.058;2023-12-20T02:04:29;8.30;53.90
326;DHT22;150;52.352;14.058;2023-12-20T02:06:56;8.20;53.90
326;DHT22;150;52.352;14.058;2023-12-20T02:09:24;8.20;54.50
326;DHT22;150;52.352;14.058;2023-12-20T02:11:50;8.20;54.80
326;DHT22;150;52.352;14.058;2023-12-20T02:14:18;8.20;55.60
326;DHT22;150;52.352;14.058;2023-12-20T02:16:45;8.10;54.80
326;DHT22;150;52.352;14.058;2023-12-20T02:19:14;8.20;55.10
326;DHT22;150;52.352;14.058;2023-12-20T02:21:42;8.20;55.10
326;DHT22;150;52.352;14.058;2023-12-20T02:24:08;8.20;55.00
326;DHT22;150;52.352;14.058;2023-12-20T02:26:35;8.20;55.10
326;DHT22;150;52.352;14.058;2023-12-20T02:29:02;8.40;55.10
326;DHT22;150;52.352;14.058;2023-12-20T02:31:29;8.40;54.30
326;DHT22;150;52.352;14.058;2023-12-20T02:33:55;8.40;54.30
326;DHT22;150;52.352;14.058;2023-12-20T02:36:22;8.40;53.70
326;DHT22;150;52.352;14.058;2023-12-20T02:38:50;8.30;52.90
326;DHT22;150;52.352;14.058;2023-12-20T02:41:16;8.30;53.80
326;DHT22;150;52.352;14.058;2023-12-20T02:43:43;8.30;54.00
326;DHT22;150;52.352;14.058;2023-12-20T02:46:10;8.30;54.50
326;DHT22;150;52.352;14.058;2023-12-20T02:48:36;8.40;54.40
326;DHT22;150;52.352;14.058;2023-12-20T02:51:03;8.40;53.90
326;DHT22;150;52.352;14.058;2023-12-20T02:53:30;8.40;53.90
326;DHT22;150;52.352;14.058;2023-12-20T02:55:57;8.40;54.20
326;DHT22;150;52.352;14.058;2023-12-20T02:58:24;8.40;54.10
326;DHT22;150;52.352;14.058;2023-12-20T03:00:51;8.30;53.70
326;DHT22;150;52.352;14.058;2023-12-20T03:03:17;8.40;54.30
326;DHT22;150;52.352;14.058;2023-12-20T03:05:45;8.40;54.40
326;DHT22;150;52.352;14.058;2023-12-20T03:08:11;8.40;54.00
326;DHT22;150;52.352;14.058;2023-12-20T03:10:38;8.40;53.90
326;DHT22;150;52.352;14.058;2023-12-20T03:13:06;8.40;54.00
326;DHT22;150;52.352;14.058;2023-12-20T03:15:32;8.40;54.00
326;DHT22;150;52.352;14.058;2023-12-20T03:17:59;8.40;53.90
326;DHT22;150;52.352;14.058;2023-12-20T03:20:26;8.50;54.10
326;DHT22;150;52.352;14.058;2023-12-20T03:22:52;8.40;53.80
326;DHT22;150;52.352;14.058;2023-12-20T03:25:19;8.50;54.20
326;DHT22;150;52.352;14.058;2023-12-20T03:27:45;8.60;53.50
326;DHT22;150;52.352;14.058;2023-12-20T03:30:13;8.60;53.60
326;DHT22;150;52.352;14.058;2023-12-20T03:32:40;8.70;53.80
326;DHT22;150;52.352;14.058;2023-12-20T03:35:07;8.70;53.40
326;DHT22;150;52.352;14.058;2023-12-20T03:37:33;8.70;53.20
326;DHT22;150;52.352;14.058;2023-12-20T03:40:00;8.70;53.20
326;DHT22;150;52.352;14.058;2023-12-20T03:42:26;8.80;53.30
326;DHT22;150;52.352;14.058;2023-12-20T03:44:53;8.80;53.20
326;DHT22;150;52.352;14.058;2023-12-20T03:47:21;8.80;53.00
326;DHT22;150;52.352;14.058;2023-12-20T03:49:48;8.90;52.50
326;DHT22;150;52.352;14.058;2023-12-20T03:52:14;8.90;51.90
326;DHT22;150;52.352;14.058;2023-12-20T03:54:41;8.80;51.80
326;DHT22;150;52.352;14.058;2023-12-20T03:57:08;8.80;52.30
326;DHT22;150;52.352;14.058;2023-12-20T03:59:35;8.80;52.00
326;DHT22;150;52.352;14.058;2023-12-20T04:02:02;8.80;51.80
326;DHT22;150;52.352;14.058;2023-12-20T04:04:30;8.80;52.00
326;DHT22;150;52.352;14.058;2023-12-20T04:06:57;8.80;52.40
326;DHT22;150;52.352;14.058;2023-12-20T04:09:23;8.80;52.70
326;DHT22;150;52.352;14.058;2023-12-20T04:11:50;8.80;52.30
326;DHT22;150;52.352;14.058;2023-12-20T04:14:16;8.80;52.50
326;DHT22;150;52.352;14.058;2023-12-20T04:16:43;8.80;52.30
326;DHT22;150;52.352;14.058;2023-12-20T04:19:09;8.80;52.30
326;DHT22;150;52.352;14.058;2023-12-20T04:21:37;8.90;52.70
326;DHT22;150;52.352;14.058;2023-12-20T04:24:04;8.90;52.80
326;DHT22;150;52.352;14.058;2023-12-20T04:26:31;8.80;51.80
326;DHT22;150;52.352;14.058;2023-12-20T04:28:57;8.90;52.40
326;DHT22;150;52.352;14.058;2023-12-20T04:31:24;8.90;52.40
326;DHT22;150;52.352;14.058;2023-12-20T04:33:51;8.90;51.30
326;DHT22;150;52.352;14.058;2023-12-20T04:36:17;8.80;51.60
326;DHT22;150;52.352;14.058;2023-12-20T04:38:45;8.80;51.80
326;DHT22;150;52.352;14.058;2023-12-20T04:41:12;8.90;52.20
326;DHT22;150;52.352;14.058;2023-12-20T04:43:41;8.90;52.00
326;DHT22;150;52.352;14.058;2023-12-20T04:46:07;8.90;51.50
326;DHT22;150;52.352;14.058;2023-12-20T04:48:34;8.90;51.40
326;DHT22;150;52.352;14.058;2023-12-20T04:51:00;8.90;50.80
326;DHT22;150;52.352;14.058;2023-12-20T04:53:27;8.90;51.00
326;DHT22;150;52.352;14.058;2023-12-20T04:55:55;8.90;50.70
326;DHT22;150;52.352;14.058;2023-12-20T04:58:21;8.90;50.70
326;DHT22;150;52.352;14.058;2023-12-20T05:00:48;8.90;50.70
326;DHT22;150;52.352;14.058;2023-12-20T05:03:15;8.90;50.50
326;DHT22;150;52.352;14.058;2023-12-20T05:05:41;8.90;50.10
326;DHT22;150;52.352;14.058;2023-12-20T05:08:08;8.90;50.10
326;DHT22;150;52.352;14.058;2023-12-20T05:10:34;8.90;50.00
326;DHT22;150;52.352;14.058;2023-12-20T05:13:03;8.90;50.90
326;DHT22;150;52.352;14.058;2023-12-20T05:15:30;8.90;50.10
326;DHT22;150;52.352;14.058;2023-12-20T05:17:56;8.90;49.80
326;DHT22;150;52.352;14.058;2023-12-20T05:20:23;8.90;49.70
326;DHT22;150;52.352;14.058;2023-12-20T05:22:49;8.80;49.40
326;DHT22;150;52.352;14.058;2023-12-20T05:25:16;8.70;49.50
326;DHT22;150;52.352;14.058;2023-12-20T05:27:43;8.70;49.80
326;DHT22;150;52.352;14.058;2023-12-20T05:30:11;8.60;49.50
326;DHT22;150;52.352;14.058;2023-12-20T05:32:38;8.60;49.70
326;DHT22;150;52.352;14.058;2023-12-20T05:35:05;8.50;49.30
326;DHT22;150;52.352;14.058;2023-12-20T05:37:31;8.40;49.30
326;DHT22;150;52.352;14.058;2023-12-20T05:39:58;8.40;49.40
326;DHT22;150;52.352;14.058;2023-12-20T05:42:25;8.30;49.80
326;DHT22;150;52.352;14.058;2023-12-20T05:44:51;8.40;50.20
326;DHT22;150;52.352;14.058;2023-12-20T05:47:19;8.40;50.30
326;DHT22;150;52.352;14.058;2023-12-20T05:49:46;8.30;50.00
326;DHT22;150;52.352;14.058;2023-12-20T05:52:12;8.40;50.40
326;DHT22;150;52.352;14.058;2023-12-20T05:54:39;8.30;49.90
326;DHT22;150;52.352;14.058;2023-12-20T05:57:05;8.30;50.10
326;DHT22;150;52.352;14.058;2023-12-20T05:59:32;8.30;50.30
326;DHT22;150;52.352;14.058;2023-12-20T06:01:58;8.20;49.70
326;DHT22;150;52.352;14.058;2023-12-20T06:04:26;8.10;50.40
326;DHT22;150;52.352;14.058;2023-12-20T06:06:53;8.10;51.20
326;DHT22;150;52.352;14.058;2023-12-20T06:09:19;8.00;51.20
326;DHT22;150;52.352;14.058;2023-12-20T06:11:46;8.00;51.50
326;DHT22;150;52.352;14.058;2023-12-20T06:14:12;7.90;50.90
326;DHT22;150;52.352;14.058;2023-12-20T06:16:39;7.90;51.40
326;DHT22;150;52.352;14.058;2023-12-20T06:19:05;7.90;51.60
326;DHT22;150;52.352;14.058;2023-12-20T06:21:33;7.90;51.80
326;DHT22;150;52.352;14.058;2023-12-20T06:24:00;7.90;51.80
326;DHT22;150;52.352;14.058;2023-12-20T06:26:26;7.90;52.00
326;DHT22;150;52.352;14.058;2023-12-20T06:28:53;8.00;51.60
326;DHT22;150;52.352;14.058;2023-12-20T06:31:20;8.00;51.70
326;DHT22;150;52.352;14.058;2023-12-20T06:33:47;7.90;51.00
326;DHT22;150;52.352;14.058;2023-12-20T06:36:15;7.80;50.30
326;DHT22;150;52.352;14.058;2023-12-20T06:38:43;7.70;50.50
326;DHT22;150;52.352;14.058;2023-12-20T06:41:13;7.70;50.80
326;DHT22;150;52.352;14.058;2023-12-20T06:43:39;7.70;50.40
326;DHT22;150;52.352;14.058;2023-12-20T06:46:06;7.70;50.10
326;DHT22;150;52.352;14.058;2023-12-20T06:48:33;7.70;50.00
326;DHT22;150;52.352;14.058;2023-12-20T06:51:00;7.60;49.80
326;DHT22;150;52.352;14.058;2023-12-20T06:53:27;7.60;50.00
326;DHT22;150;52.352;14.058;2023-12-20T06:55:55;7.60;50.20
326;DHT22;150;52.352;14.058;2023-12-20T06:58:22;7.50;49.90
326;DHT22;150;52.352;14.058;2023-12-20T07:00:50;7.40;50.20
326;DHT22;150;52.352;14.058;2023-12-20T07:03:17;7.40;50.80
326;DHT22;150;52.352;14.058;2023-12-20T07:05:44;7.30;50.80
326;DHT22;150;52.352;14.058;2023-12-20T07:08:11;7.30;51.20
326;DHT22;150;52.352;14.058;2023-12-20T07:10:39;7.30;51.50
326;DHT22;150;52.352;14.058;2023-12-20T07:13:07;7.30;51.60
326;DHT22;150;52.352;14.058;2023-12-20T07:15:34;7.20;51.20
326;DHT22;150;52.352;14.058;2023-12-20T07:18:02;7.20;51.70
326;DHT22;150;52.352;14.058;2023-12-20T07:20:29;7.20;51.60
326;DHT22;150;52.352;14.058;2023-12-20T07:22:55;7.10;51.90
326;DHT22;150;52.352;14.058;2023-12-20T07:25:22;7.00;51.80
326;DHT22;150;52.352;14.058;2023-12-20T07:27:48;7.00;51.80
326;DHT22;150;52.352;14.058;2023-12-20T07:30:16;7.00;52.20
326;DHT22;150;52.352;14.058;2023-12-20T07:32:43;7.00;52.40
326;DHT22;150;52.352;14.058;2023-12-20T07:35:10;6.90;52.50
326;DHT22;150;52.352;14.058;2023-12-20T07:37:37;7.00;52.90
326;DHT22;150;52.352;14.058;2023-12-20T07:40:04;7.00;52.90
326;DHT22;150;52.352;14.058;2023-12-20T07:42:31;7.10;53.10
326;DHT22;150;52.352;14.058;2023-12-20T07:44:58;7.10;52.90
326;DHT22;150;52.352;14.058;2023-12-20T07:47:26;7.10;53.00
326;DHT22;150;52.352;14.058;2023-12-20T07:49:53;7.20;53.60
326;DHT22;150;52.352;14.058;2023-12-20T07:52:19;7.20;52.30
326;DHT22;150;52.352;14.058;2023-12-20T07:54:47;7.20;52.30
326;DHT22;150;52.352;14.058;2023-12-20T07:57:13;7.20;53.10
326;DHT22;150;52.352;14.058;2023-12-20T07:59:40;7.30;53.40
326;DHT22;150;52.352;14.058;2023-12-20T08:02:07;7.30;52.90
326;DHT22;150;52.352;14.058;2023-12-20T08:04:34;7.30;52.40
326;DHT22;150;52.352;14.058;2023-12-20T08:07:01;7.40;52.20
326;DHT22;150;52.352;14.058;2023-12-20T08:09:28;7.40;52.10
326;DHT22;150;52.352;14.058;2023-12-20T08:11:55;7.20;52.00
326;DHT22;150;52.352;14.058;2023-12-20T08:14:21;7.30;52.00
326;DHT22;150;52.352;14.058;2023-12-20T08:16:48;7.30;52.00
326;DHT22;150;52.352;14.058;2023-12-20T08:19:14;7.20;52.00
326;DHT22;150;52.352;14.058;2023-12-20T08:21:42;7.30;52.10
326;DHT22;150;52.352;14.058;2023-12-20T08:24:09;7.20;52.00
326;DHT22;150;52.352;14.058;2023-12-20T08:26:35;7.30;52.00
326;DHT22;150;52.352;14.058;2023-12-20T08:29:02;7.40;51.80
326;DHT22;150;52.352;14.058;2023-12-20T08:31:28;7.40;51.10
326;DHT22;150;52.352;14.058;2023-12-20T08:33:55;7.30;50.80
326;DHT22;150;52.352;14.058;2023-12-20T08:36:22;7.40;50.60
326;DHT22;150;52.352;14.058;2023-12-20T08:38:50;7.30;50.70
326;DHT22;150;52.352;14.058;2023-12-20T08:41:17;7.30;50.70
326;DHT22;150;52.352;14.058;2023-12-20T08:43:44;7.40;51.10
326;DHT22;150;52.352;14.058;2023-12-20T08:46:11;7.40;50.80
326;DHT22;150;52.352;14.058;2023-12-20T08:48:37;7.40;50.10
326;DHT22;150;52.352;14.058;2023-12-20T08:51:04;7.30;50.10
326;DHT22;150;52.352;14.058;2023-12-20T08:53:32;7.30;50.90
326;DHT22;150;52.352;14.058;2023-12-20T08:56:01;7.50;51.30
326;DHT22;150;52.352;14.058;2023-12-20T08:58:28;7.50;50.50
326;DHT22;150;52.352;14.058;2023-12-20T09:00:54;7.50;50.00
326;DHT22;150;52.352;14.058;2023-12-20T09:03:22;7.60;50.20
326;DHT22;150;52.352;14.058;2023-12-20T09:05:48;7.60;49.60
326;DHT22;150;52.352;14.058;2023-12-20T09:08:15;7.60;49.50
326;DHT22;150;52.352;14.058;2023-12-20T09:10:41;7.60;49.40
326;DHT22;150;52.352;14.058;2023-12-20T09:13:09;7.60;49.70
326;DHT22;150;52.352;14.058;2023-12-20T09:15:36;7.50;49.70
326;DHT22;150;52.352;14.058;2023-12-20T09:18:02;7.60;50.00
326;DHT22;150;52.352;14.058;2023-12-20T09:20:29;7.60;50.00
326;DHT22;150;52.352;14.058;2023-12-20T09:22:56;7.70;50.10
326;DHT22;150;52.352;14.058;2023-12-20T09:25:23;7.80;49.70
326;DHT22;150;52.352;14.058;2023-12-20T09:27:51;7.90;49.30
326;DHT22;150;52.352;14.058;2023-12-20T09:30:19;7.90;49.30
326;DHT22;150;52.352;14.058;2023-12-20T09:32:45;7.90;48.70
326;DHT22;150;52.352;14.058;2023-12-20T09:35:12;7.90;48.40
326;DHT22;150;52.352;14.058;2023-12-20T09:37:40;7.80;48.40
326;DHT22;150;52.352;14.058;2023-12-20T09:40:11;8.00;49.10
326;DHT22;150;52.352;14.058;2023-12-20T09:42:43;8.00;48.20
326;DHT22;150;52.352;14.058;2023-12-20T09:45:15;8.10;48.30
326;DHT22;150;52.352;14.058;2023-12-20T09:47:43;8.10;47.50
326;DHT22;150;52.352;14.058;2023-12-20T09:50:10;8.20;47.50
326;DHT22;150;52.352;14.058;2023-12-20T09:52:38;8.10;47.60
326;DHT22;150;52.352;14.058;2023-12-20T09:55:07;8.10;47.40
326;DHT22;150;52.352;14.058;2023-12-20T09:57:35;8.00;47.50
326;DHT22;150;52.352;14.058;2023-12-20T10:00:01;8.10;47.60
326;DHT22;150;52.352;14.058;2023-12-20T10:02:29;8.20;47.70
326;DHT22;150;52.352;14.058;2023-12-20T10:04:59;8.20;47.70
326;DHT22;150;52.352;14.058;2023-12-20T10:07:27;8.20;47.30
326;DHT22;150;52.352;14.058;2023-12-20T10:09:54;8.10;46.70
326;DHT22;150;52.352;14.058;2023-12-20T10:12:21;8.10;47.40
326;DHT22;150;52.352;14.058;2023-12-20T10:14:48;8.10;47.20
326;DHT22;150;52.352;14.058;2023-12-20T10:17:15;8.00;47.20
326;DHT22;150;52.352;14.058;2023-12-20T10:19:43;7.90;47.50
326;DHT22;150;52.352;14.058;2023-12-20T10:22:10;7.90;48.40
326;DHT22;150;52.352;14.058;2023-12-20T10:24:37;7.90;47.90
326;DHT22;150;52.352;14.058;2023-12-20T10:27:04;7.80;48.30
326;DHT22;150;52.352;14.058;2023-12-20T10:29:32;7.90;48.30
326;DHT22;150;52.352;14.058;2023-12-20T10:31:59;7.80;48.40
326;DHT22;150;52.352;14.058;2023-12-20T10:34:26;7.80;48.50
326;DHT22;150;52.352;14.058;2023-12-20T10:36:52;7.80;48.40
326;DHT22;150;52.352;14.058;2023-12-20T10:39:21;7.80;48.50
326;DHT22;150;52.352;14.058;2023-12-20T10:41:48;7.90;48.50
326;DHT22;150;52.352;14.058;2023-12-20T10:44:15;8.10;47.70
326;DHT22;150;52.352;14.058;2023-12-20T10:46:41;8.10;46.90
326;DHT22;150;52.352;14.058;2023-12-20T10:49:16;8.00;47.00
326;DHT22;150;52.352;14.058;2023-12-20T10:51:44;8.00;46.70
326;DHT22;150;52.352;14.058;2023-12-20T10:54:12;8.00;47.50
326;DHT22;150;52.352;14.058;2023-12-20T10:56:40;8.00;47.00
326;DHT22;150;52.352;14.058;2023-12-20T10:59:08;8.00;47.30
326;DHT22;150;52.352;14.058;2023-12-20T11:01:38;8.00;46.70
326;DHT22;150;52.352;14.058;2023-12-20T11:04:08;7.90;47.10
326;DHT22;150;52.352;14.058;2023-12-20T11:06:45;8.00;47.50
326;DHT22;150;52.352;14.058;2023-12-20T11:09:19;8.10;46.40
326;DHT22;150;52.352;14.058;2023-12-20T11:11:59;8.00;46.00
326;DHT22;150;52.352;14.058;2023-12-20T11:14:31;8.10;46.20
326;DHT22;150;52.352;14.058;2023-12-20T11:17:07;8.00;46.20
326;DHT22;150;52.352;14.058;2023-12-20T11:19:36;8.00;46.50
326;DHT22;150;52.352;14.058;2023-12-20T11:22:04;7.90;46.70
326;DHT22;150;52.352;14.058;2023-12-20T11:24:31;8.00;46.80
326;DHT22;150;52.352;14.058;2023-12-20T11:27:00;8.10;46.40
326;DHT22;150;52.352;14.058;2023-12-20T11:29:33;8.10;45.70
326;DHT22;150;52.352;14.058;2023-12-20T11:32:02;8.10;45.70
326;DHT22;150;52.352;14.058;2023-12-20T11:34:31;8.20;46.10
326;DHT22;150;52.352;14.058;2023-12-20T11:36:59;8.30;45.70
326;DHT22;150;52.352;14.058;2023-12-20T11:39:27;8.30;45.10
326;DHT22;150;52.352;14.058;2023-12-20T11:41:55;8.40;44.10
326;DHT22;150;52.352;14.058;2023-12-20T11:44:25;8.40;44.10
326;DHT22;150;52.352;14.058;2023-12-20T11:46:52;8.40;44.60
326;DHT22;150;52.352;14.058;2023-12-20T11:49:23;8.40;44.80
326;DHT22;150;52.352;14.058;2023-12-20T11:51:49;8.40;44.90
326;DHT22;150;52.352;14.058;2023-12-20T11:54:16;8.40;45.00
326;DHT22;150;52.352;14.058;2023-12-20T11:56:42;8.40;45.50
326;DHT22;150;52.352;14.058;2023-12-20T11:59:09;8.50;45.50
326;DHT22;150;52.352;14.058;2023-12-20T12:01:38;8.40;44.70
326;DHT22;150;52.352;14.058;2023-12-20T12:04:04;8.30;45.20
326;DHT22;150;52.352;14.058;2023-12-20T12:06:33;8.30;45.30
326;DHT22;150;52.352;14.058;2023-12-20T12:09:00;8.30;45.50
326;DHT22;150;52.352;14.058;2023-12-20T12:11:29;8.20;44.60
326;DHT22;150;52.352;14.058;2023-12-20T12:13:56;8.20;45.50
326;DHT22;150;52.352;14.058;2023-12-20T12:16:22;8.20;45.60
326;DHT22;150;52.352;14.058;2023-12-20T12:18:56;8.20;46.30
326;DHT22;150;52.352;14.058;2023-12-20T12:21:23;8.30;46.00
326;DHT22;150;52.352;14.058;2023-12-20T12:23:49;8.30;45.80
326;DHT22;150;52.352;14.058;2023-12-20T12:26:16;8.20;45.70
326;DHT22;150;52.352;14.058;2023-12-20T12:28:43;8.20;45.50
326;DHT22;150;52.352;14.058;2023-12-20T12:31:13;8.20;45.50
326;DHT22;150;52.352;14.058;2023-12-20T12:33:41;8.10;45.60
326;DHT22;150;52.352;14.058;2023-12-20T12:36:10;8.20;45.70
326;DHT22;150;52.352;14.058;2023-12-20T12:38:37;8.20;45.70
326;DHT22;150;52.352;14.058;2023-12-20T12:41:04;8.20;45.20
326;DHT22;150;52.352;14.058;2023-12-20T12:43:31;8.10;44.70
326;DHT22;150;52.352;14.058;2023-12-20T12:45:58;8.00;45.10
326;DHT22;150;52.352;14.058;2023-12-20T12:48:25;8.00;45.70
326;DHT22;150;52.352;14.058;2023-12-20T12:50:53;8.00;45.50
326;DHT22;150;52.352;14.058;2023-12-20T12:53:21;8.10;46.10
326;DHT22;150;52.352;14.058;2023-12-20T12:55:47;8.00;45.60
326;DHT22;150;52.352;14.058;2023-12-20T12:58:14;8.10;45.70
326;DHT22;150;52.352;14.058;2023-12-20T13:00:40;8.00;45.50
326;DHT22;150;52.352;14.058;2023-12-20T13:03:07;8.00;45.10
326;DHT22;150;52.352;14.058;2023-12-20T13:05:34;8.10;45.70
326;DHT22;150;52.352;14.058;2023-12-20T13:08:00;7.90;44.70
326;DHT22;150;52.352;14.058;2023-12-20T13:10:28;7.90;45.50
326;DHT22;150;52.352;14.058;2023-12-20T13:12:55;7.80;46.20
326;DHT22;150;52.352;14.058;2023-12-20T13:15:21;7.80;46.50
326;DHT22;150;52.352;14.058;2023-12-20T13:17:48;7.80;46.80
326;DHT22;150;52.352;14.058;2023-12-20T13:20:16;7.80;47.40
326;DHT22;150;52.352;14.058;2023-12-20T13:22:42;7.80;47.40
326;DHT22;150;52.352;14.058;2023-12-20T13:25:09;7.80;47.40
326;DHT22;150;52.352;14.058;2023-12-20T13:27:37;7.80;47.40
326;DHT22;150;52.352;14.058;2023-12-20T13:30:04;7.70;47.30
326;DHT22;150;52.352;14.058;2023-12-20T13:32:31;7.70;47.60
326;DHT22;150;52.352;14.058;2023-12-20T13:34:57;7.70;48.10
326;DHT22;150;52.352;14.058;2023-12-20T13:37:24;7.80;47.60
326;DHT22;150;52.352;14.058;2023-12-20T13:39:51;7.80;47.80
326;DHT22;150;52.352;14.058;2023-12-20T13:42:17;7.70;48.00
326;DHT22;150;52.352;14.058;2023-12-20T13:44:47;7.70;48.60
326;DHT22;150;52.352;14.058;2023-12-20T13:47:13;7.70;48.60
326;DHT22;150;52.352;14.058;2023-12-20T13:49:40;7.70;48.90
326;DHT22;150;52.352;14.058;2023-12-20T13:52:06;7.70;48.60
326;DHT22;150;52.352;14.058;2023-12-20T13:54:33;7.70;48.60
326;DHT22;150;52.352;14.058;2023-12-20T13:56:59;7.80;49.30
326;DHT22;150;52.352;14.058;2023-12-20T13:59:26;7.80;49.60
326;DHT22;150;52.352;14.058;2023-12-20T14:01:54;8.00;49.40
326;DHT22;150;52.352;14.058;2023-12-20T14:04:22;8.00;48.60
326;DHT22;150;52.352;14.058;2023-12-20T14:06:49;8.00;48.60
326;DHT22;150;52.352;14.058;2023-12-20T14:09:15;7.90;49.40
326;DHT22;150;52.352;14.058;2023-12-20T14:11:42;7.90;49.80
326;DHT22;150;52.352;14.058;2023-12-20T14:14:08;7.90;50.70
326;DHT22;150;52.352;14.058;2023-12-20T14:16:35;7.80;50.10
326;DHT22;150;52.352;14.058;2023-12-20T14:19:04;7.70;50.50
326;DHT22;150;52.352;14.058;2023-12-20T14:21:32;7.60;49.90
326;DHT22;150;52.352;14.058;2023-12-20T14:23:59;7.50;50.40
326;DHT22;150;52.352;14.058;2023-12-20T14:26:26;7.50;50.20
326;DHT22;150;52.352;14.058;2023-12-20T14:28:53;7.40;49.10
326;DHT22;150;52.352;14.058;2023-12-20T14:31:19;7.30;49.50
326;DHT22;150;52.352;14.058;2023-12-20T14:33:47;7.30;48.80
326;DHT22;150;52.352;14.058;2023-12-20T14:36:17;7.20;48.60
326;DHT22;150;52.352;14.058;2023-12-20T14:38:44;7.20;48.70
326;DHT22;150;52.352;14.058;2023-12-20T14:41:10;7.10;48.10
326;DHT22;150;52.352;14.058;2023-12-20T14:43:37;7.10;48.30
326;DHT22;150;52.352;14.058;2023-12-20T14:46:03;7.10;48.10
326;DHT22;150;52.352;14.058;2023-12-20T14:48:30;7.10;48.30
326;DHT22;150;52.352;14.058;2023-12-20T14:50:58;7.00;48.00
326;DHT22;150;52.352;14.058;2023-12-20T14:53:26;6.90;48.40
326;DHT22;150;52.352;14.058;2023-12-20T14:55:53;6.90;48.80
326;DHT22;150;52.352;14.058;2023-12-20T14:58:19;6.80;48.70
326;DHT22;150;52.352;14.058;2023-12-20T15:00:46;6.80;48.70
326;DHT22;150;52.352;14.058;2023-12-20T15:03:12;6.80;49.10
326;DHT22;150;52.352;14.058;2023-12-20T15:05:41;6.90;48.70
326;DHT22;150;52.352;14.058;2023-12-20T15:08:08;6.80;48.60
326;DHT22;150;52.352;14.058;2023-12-20T15:10:37;6.90;48.70
326;DHT22;150;52.352;14.058;2023-12-20T15:13:04;6.90;48.80
326;DHT22;150;52.352;14.058;2023-12-20T15:15:31;6.90;48.70
326;DHT22;150;52.352;14.058;2023-12-20T15:17:59;7.00;48.90
326;DHT22;150;52.352;14.058;2023-12-20T15:20:25;7.00;48.60
326;DHT22;150;52.352;14.058;2023-12-20T15:22:52;7.10;48.60
326;DHT22;150;52.352;14.058;2023-12-20T15:25:20;7.20;48.60
326;DHT22;150;52.352;14.058;2023-12-20T15:27:48;7.20;48.30
326;DHT22;150;52.352;14.058;2023-12-20T15:30:18;7.30;47.60
326;DHT22;150;52.352;14.058;2023-12-20T15:32:44;7.30;47.90
326;DHT22;150;52.352;14.058;2023-12-20T15:35:11;7.30;47.70
326;DHT22;150;52.352;14.058;2023-12-20T15:37:38;7.30;47.00
326;DHT22;150;52.352;14.058;2023-12-20T15:42:33;7.20;46.90
326;DHT22;150;52.352;14.058;2023-12-20T15:45:03;7.20;46.90
326;DHT22;150;52.352;14.058;2023-12-20T15:47:30;7.20;46.90
326;DHT22;150;52.352;14.058;2023-12-20T15:49:57;7.10;46.80
326;DHT22;150;52.352;14.058;2023-12-20T15:52:23;7.00;47.30
326;DHT22;150;52.352;14.058;2023-12-20T15:54:50;7.00;47.50
326;DHT22;150;52.352;14.058;2023-12-20T15:57:15;7.00;48.10
326;DHT22;150;52.352;14.058;2023-12-20T15:59:42;7.00;48.40
326;DHT22;150;52.352;14.058;2023-12-20T16:02:10;7.10;48.40
326;DHT22;150;52.352;14.058;2023-12-20T16:04:37;7.00;47.70
326;DHT22;150;52.352;14.058;2023-12-20T16:07:03;7.00;48.00
326;DHT22;150;52.352;14.058;2023-12-20T16:09:30;7.00;48.30
326;DHT22;150;52.352;14.058;2023-12-20T16:11:56;7.00;48.30
326;DHT22;150;52.352;14.058;2023-12-20T16:14:23;7.10;49.30
326;DHT22;150;52.352;14.058;2023-12-20T16:16:52;7.10;48.10
326;DHT22;150;52.352;14.058;2023-12-20T16:19:20;7.20;48.60
326;DHT22;150;52.352;14.058;2023-12-20T16:21:46;7.20;47.90
326;DHT22;150;52.352;14.058;2023-12-20T16:24:13;7.20;48.00
326;DHT22;150;52.352;14.058;2023-12-20T16:26:40;7.20;46.90
326;DHT22;150;52.352;14.058;2023-12-20T16:29:06;7.20;46.90
326;DHT22;150;52.352;14.058;2023-12-20T16:31:33;7.20;46.90
326;DHT22;150;52.352;14.058;2023-12-20T16:33:59;7.30;46.90
326;DHT22;150;52.352;14.058;2023-12-20T16:36:46;7.20;46.50